Time;durP1;ratioP1;P1;durP2;ratioP2;P2;SDS_P1;SDS_P2;PMS_P1;PMS_P2;Temp;Humidity;BMP_temperature;BMP_pressure;BME280_temperature;BME280_humidity;BME280_pressure;Samples;Min_cycle;Max_cycle;Signal;HPM_P1;HPM_P2
2021/04/07 00:01:13;;;;;;;390.73;220.95;;;;;;;;;;4993488;28;20031;-78
2021/04/07 00:03:39;;;;;;;391.08;216.07;;;;;;;;;;4977412;28;20034;-82
2021/04/07 00:06:05;;;;;;;370.90;210.55;;;;;;;;;;4976570;28;20037;-80
2021/04/07 00:08:32;;;;;;;379.73;211.75;;;;;;;;;;4976942;28;20065;-84
2021/04/07 00:10:58;;;;;;;381.35;217.05;;;;;;;;;;4966086;28;20495;-83
2021/04/07 00:13:24;;;;;;;388.23;209.35;;;;;;;;;;4956894;28;20038;-83
2021/04/07 00:15:50;;;;;;;392.85;219.55;;;;;;;;;;4964097;28;20089;-84
2021/04/07 00:18:16;;;;;;;386.65;208.38;;;;;;;;;;4957635;28;20046;-84
2021/04/07 00:20:42;;;;;;;384.02;216.18;;;;;;;;;;4964632;28;20042;-83
2021/04/07 00:23:08;;;;;;;382.83;210.07;;;;;;;;;;4976976;28;20033;-83
2021/04/07 00:25:35;;;;;;;383.73;214.23;;;;;;;;;;4988473;28;20053;-82
2021/04/07 00:28:04;;;;;;;377.73;206.43;;;;;;;;;;4976576;28;20035;-82
2021/04/07 00:30:31;;;;;;;383.02;210.60;;;;;;;;;;4976328;28;20026;-81
2021/04/07 00:32:58;;;;;;;388.60;217.30;;;;;;;;;;4993658;28;20070;-80
2021/04/07 00:35:24;;;;;;;380.08;215.55;;;;;;;;;;4957371;28;20069;-83
2021/04/07 00:37:51;;;;;;;380.55;205.90;;;;;;;;;;4974840;28;20066;-84
2021/04/07 00:40:17;;;;;;;388.00;218.05;;;;;;;;;;4976327;28;20027;-82
2021/04/07 00:42:44;;;;;;;388.27;214.45;;;;;;;;;;4975946;28;20022;-81
2021/04/07 00:45:11;;;;;;;380.45;214.25;;;;;;;;;;4976321;28;20363;-84
2021/04/07 00:47:37;;;;;;;381.35;201.77;;;;;;;;;;4966718;28;20033;-84
2021/04/07 00:50:03;;;;;;;381.58;209.82;;;;;;;;;;4977281;28;20042;-83
2021/04/07 00:52:29;;;;;;;380.33;209.25;;;;;;;;;;4993740;28;20030;-84
2021/04/07 00:54:56;;;;;;;386.65;222.90;;;;;;;;;;4976347;28;20034;-78
2021/04/07 00:57:22;;;;;;;381.05;206.20;;;;;;;;;;4977980;28;20030;-79
2021/04/07 00:59:49;;;;;;;374.65;202.35;;;;;;;;;;4974074;28;20062;-79
2021/04/07 01:02:19;;;;;;;380.55;210.88;;;;;;;;;;4963993;28;20041;-78
2021/04/07 01:04:45;;;;;;;380.55;205.80;;;;;;;;;;4977597;28;20035;-77
2021/04/07 01:07:11;;;;;;;385.92;209.68;;;;;;;;;;4997589;28;20033;-78
2021/04/07 01:09:38;;;;;;;383.45;217.35;;;;;;;;;;4988840;28;20035;-76
2021/04/07 01:12:05;;;;;;;388.38;215.75;;;;;;;;;;4970956;28;20023;-77
2021/04/07 01:14:31;;;;;;;382.65;208.40;;;;;;;;;;4982730;28;20547;-76
2021/04/07 01:16:57;;;;;;;383.92;205.23;;;;;;;;;;4980648;28;20066;-76
2021/04/07 01:19:25;;;;;;;380.27;208.60;;;;;;;;;;4980537;28;20038;-77
2021/04/07 01:21:51;;;;;;;381.65;209.95;;;;;;;;;;4998001;28;20118;-75
2021/04/07 01:24:18;;;;;;;383.10;204.05;;;;;;;;;;4997857;28;20026;-75
2021/04/07 01:26:44;;;;;;;377.70;204.57;;;;;;;;;;4980742;28;20034;-75
2021/04/07 01:29:10;;;;;;;376.98;204.45;;;;;;;;;;4963513;28;20110;-78
2021/04/07 01:31:53;;;;;;;381.08;205.15;;;;;;;;;;4986562;28;20701;-78
2021/04/07 01:34:26;;;;;;;379.85;207.38;;;;;;;;;;4981360;28;20046;-76
2021/04/07 01:36:52;;;;;;;378.60;206.18;;;;;;;;;;4980305;28;20065;-77
2021/04/07 01:39:18;;;;;;;387.02;218.02;;;;;;;;;;4981560;28;20030;-77
2021/04/07 01:41:45;;;;;;;376.55;200.05;;;;;;;;;;4980747;28;20096;-76
2021/04/07 01:44:11;;;;;;;377.98;212.25;;;;;;;;;;4980350;28;20691;-75
2021/04/07 01:46:39;;;;;;;372.58;200.85;;;;;;;;;;4980143;28;20372;-77
2021/04/07 01:49:07;;;;;;;374.25;198.15;;;;;;;;;;4994831;28;20117;-77
2021/04/07 01:51:33;;;;;;;380.55;211.10;;;;;;;;;;4972935;28;20098;-77
2021/04/07 01:54:03;;;;;;;380.33;212.85;;;;;;;;;;4977335;28;20116;-77
2021/04/07 01:56:29;;;;;;;374.02;203.32;;;;;;;;;;4988977;28;20038;-78
2021/04/07 01:59:06;;;;;;;375.23;207.27;;;;;;;;;;4978610;28;20545;-77
2021/04/07 02:01:36;;;;;;;375.75;206.98;;;;;;;;;;4977489;28;20034;-77
2021/04/07 02:04:03;;;;;;;372.77;202.30;;;;;;;;;;4961569;28;20443;-75
2021/04/07 02:06:29;;;;;;;372.30;200.43;;;;;;;;;;4966215;28;20046;-77
2021/04/07 02:08:55;;;;;;;372.42;200.02;;;;;;;;;;4978093;28;20026;-77
2021/04/07 02:11:21;;;;;;;375.90;211.90;;;;;;;;;;4978363;28;20775;-76
2021/04/07 02:13:48;;;;;;;371.23;199.30;;;;;;;;;;4976483;28;20030;-77
2021/04/07 02:16:14;;;;;;;379.13;211.27;;;;;;;;;;4978511;28;20041;-78
2021/04/07 02:18:41;;;;;;;373.50;205.90;;;;;;;;;;4978130;28;20038;-76
2021/04/07 02:21:07;;;;;;;370.83;203.45;;;;;;;;;;4978433;28;20110;-77
2021/04/07 02:23:34;;;;;;;375.80;208.07;;;;;;;;;;4978222;28;20038;-77
2021/04/07 02:26:00;;;;;;;375.30;200.93;;;;;;;;;;4995745;28;20727;-76
2021/04/07 02:28:26;;;;;;;378.30;213.77;;;;;;;;;;4977798;28;20031;-76
2021/04/07 02:30:52;;;;;;;382.27;217.65;;;;;;;;;;4977689;28;20023;-76
2021/04/07 02:33:19;;;;;;;375.48;200.82;;;;;;;;;;4980022;28;20067;-75
2021/04/07 02:35:45;;;;;;;378.40;205.05;;;;;;;;;;4977540;28;20031;-75
2021/04/07 02:38:11;;;;;;;393.05;215.30;;;;;;;;;;4994016;28;20026;-76
2021/04/07 02:40:37;;;;;;;377.05;208.93;;;;;;;;;;4977375;28;20022;-75
2021/04/07 02:43:03;;;;;;;374.42;208.15;;;;;;;;;;4976068;28;20471;-76
2021/04/07 02:45:29;;;;;;;370.67;204.23;;;;;;;;;;4977438;28;20057;-75
2021/04/07 02:47:55;;;;;;;374.00;208.25;;;;;;;;;;4976561;28;20030;-76
2021/04/07 02:50:21;;;;;;;369.27;208.35;;;;;;;;;;4977390;28;20646;-74
2021/04/07 02:52:47;;;;;;;366.98;208.18;;;;;;;;;;4994334;28;20027;-74
2021/04/07 02:55:13;;;;;;;367.85;212.27;;;;;;;;;;4977092;28;20081;-75
2021/04/07 02:57:39;;;;;;;366.35;212.98;;;;;;;;;;4976471;28;20038;-75
2021/04/07 03:00:06;;;;;;;369.70;215.25;;;;;;;;;;4977328;28;20117;-74
2021/04/07 03:02:33;;;;;;;368.80;213.75;;;;;;;;;;4994284;28;20030;-75
2021/04/07 03:04:58;;;;;;;364.92;212.27;;;;;;;;;;4977094;28;20118;-76
2021/04/07 03:07:25;;;;;;;363.38;210.70;;;;;;;;;;4974560;28;20046;-76
2021/04/07 03:09:51;;;;;;;361.77;204.15;;;;;;;;;;4983478;28;20029;-76
2021/04/07 03:12:17;;;;;;;365.40;218.68;;;;;;;;;;4993072;28;20027;-75
2021/04/07 03:14:43;;;;;;;361.35;203.38;;;;;;;;;;4976970;28;20727;-75
2021/04/07 03:17:10;;;;;;;364.60;209.65;;;;;;;;;;4972136;28;20037;-75
2021/04/07 03:19:36;;;;;;;369.55;217.93;;;;;;;;;;4993369;28;20026;-74
2021/04/07 03:22:02;;;;;;;363.05;208.82;;;;;;;;;;4976639;28;20374;-75
2021/04/07 03:24:28;;;;;;;363.73;210.70;;;;;;;;;;4994048;28;20026;-76
2021/04/07 03:26:54;;;;;;;369.17;218.70;;;;;;;;;;4975807;28;20631;-75
2021/04/07 03:29:20;;;;;;;366.35;217.48;;;;;;;;;;4957308;28;20027;-75
2021/04/07 03:31:46;;;;;;;365.35;210.45;;;;;;;;;;4957375;28;20054;-75
2021/04/07 03:34:12;;;;;;;367.77;220.20;;;;;;;;;;4974111;28;20046;-76
2021/04/07 03:36:37;;;;;;;367.00;216.27;;;;;;;;;;4976570;28;20027;-77
2021/04/07 03:39:04;;;;;;;370.80;219.82;;;;;;;;;;4975747;28;20041;-78
2021/04/07 03:41:30;;;;;;;365.17;211.55;;;;;;;;;;4975027;28;20038;-78
2021/04/07 03:43:57;;;;;;;366.55;209.18;;;;;;;;;;4973210;28;20037;-79
2021/04/07 03:46:23;;;;;;;364.90;207.00;;;;;;;;;;4976317;28;20034;-76
2021/04/07 03:48:49;;;;;;;368.05;210.60;;;;;;;;;;4975733;28;20085;-77
2021/04/07 03:51:15;;;;;;;366.58;205.35;;;;;;;;;;4976440;28;20081;-78
2021/04/07 03:53:41;;;;;;;364.50;211.13;;;;;;;;;;4973029;28;20027;-77
2021/04/07 03:56:07;;;;;;;364.00;208.73;;;;;;;;;;4976287;28;20030;-79
2021/04/07 03:58:33;;;;;;;365.35;206.50;;;;;;;;;;4976233;28;20041;-77
2021/04/07 04:01:00;;;;;;;368.92;215.38;;;;;;;;;;4993546;28;20073;-78
2021/04/07 04:03:26;;;;;;;362.58;208.80;;;;;;;;;;4975864;28;20034;-78
2021/04/07 04:05:52;;;;;;;364.55;212.30;;;;;;;;;;4975978;28;20068;-78
2021/04/07 04:08:18;;;;;;;370.05;217.65;;;;;;;;;;4976022;28;20656;-78
2021/04/07 04:10:44;;;;;;;368.50;214.80;;;;;;;;;;4993834;28;20030;-77
2021/04/07 04:13:10;;;;;;;366.90;217.80;;;;;;;;;;4975034;28;20701;-78
2021/04/07 04:15:36;;;;;;;364.30;211.48;;;;;;;;;;4976353;28;20502;-76
2021/04/07 04:18:06;;;;;;;362.05;208.90;;;;;;;;;;4974456;28;20035;-77
2021/04/07 04:20:32;;;;;;;364.17;209.27;;;;;;;;;;4957346;28;20446;-78
2021/04/07 04:22:58;;;;;;;364.13;205.52;;;;;;;;;;4985925;28;20112;-80
2021/04/07 04:25:24;;;;;;;367.23;217.45;;;;;;;;;;4994739;28;20038;-76
2021/04/07 04:27:50;;;;;;;365.20;213.50;;;;;;;;;;4978374;28;20034;-79
2021/04/07 04:30:17;;;;;;;366.13;212.77;;;;;;;;;;4978376;28;20026;-79
2021/04/07 04:32:43;;;;;;;366.05;214.00;;;;;;;;;;4997656;28;20030;-80
2021/04/07 04:35:10;;;;;;;369.67;211.95;;;;;;;;;;4980403;28;20034;-79
2021/04/07 04:37:37;;;;;;;361.48;204.27;;;;;;;;;;4969191;28;20611;-77
2021/04/07 04:40:03;;;;;;;361.73;203.65;;;;;;;;;;4976097;28;20026;-78
2021/04/07 04:42:29;;;;;;;365.45;208.07;;;;;;;;;;4978174;28;20097;-80
2021/04/07 04:44:55;;;;;;;360.23;206.20;;;;;;;;;;4979183;28;20031;-77
2021/04/07 04:47:21;;;;;;;368.63;210.80;;;;;;;;;;4997248;28;20025;-79
2021/04/07 04:49:47;;;;;;;361.75;208.88;;;;;;;;;;4968240;28;20034;-78
2021/04/07 04:52:13;;;;;;;363.83;207.18;;;;;;;;;;4973698;28;20579;-76
2021/04/07 04:54:39;;;;;;;360.48;207.88;;;;;;;;;;4988829;28;20034;-76
2021/04/07 04:57:05;;;;;;;360.13;207.63;;;;;;;;;;4980567;28;20022;-78
2021/04/07 04:59:31;;;;;;;367.83;215.23;;;;;;;;;;4980219;28;20114;-76
2021/04/07 05:01:57;;;;;;;364.63;211.18;;;;;;;;;;4979301;28;20356;-74
2021/04/07 05:04:23;;;;;;;358.48;202.60;;;;;;;;;;4978794;28;20430;-74
2021/04/07 05:06:49;;;;;;;365.88;212.18;;;;;;;;;;4996813;28;20030;-76
2021/04/07 05:09:15;;;;;;;362.88;208.20;;;;;;;;;;4960775;28;20851;-74
2021/04/07 05:11:41;;;;;;;364.13;212.57;;;;;;;;;;4959946;28;20023;-77
2021/04/07 05:14:07;;;;;;;359.55;205.32;;;;;;;;;;4979497;28;20026;-74
2021/04/07 05:16:33;;;;;;;369.50;214.68;;;;;;;;;;4968129;28;20809;-76
2021/04/07 05:18:59;;;;;;;362.75;208.98;;;;;;;;;;4966140;28;20030;-76
2021/04/07 05:21:26;;;;;;;365.25;214.07;;;;;;;;;;4978608;28;20138;-74
2021/04/07 05:23:52;;;;;;;367.30;217.05;;;;;;;;;;4993275;28;20033;-74
2021/04/07 05:26:17;;;;;;;362.70;201.25;;;;;;;;;;4959647;28;20475;-73
2021/04/07 05:28:44;;;;;;;368.27;217.55;;;;;;;;;;4976774;28;20069;-73
2021/04/07 05:31:10;;;;;;;361.38;209.23;;;;;;;;;;4974054;28;20113;-73
2021/04/07 05:33:37;;;;;;;375.10;215.90;;;;;;;;;;4978433;28;20367;-75
2021/04/07 05:36:04;;;;;;;366.52;207.52;;;;;;;;;;4978783;28;20030;-74
2021/04/07 05:38:30;;;;;;;370.08;214.60;;;;;;;;;;4987924;28;20042;-73
2021/04/07 05:40:57;;;;;;;372.48;215.43;;;;;;;;;;4994544;28;20096;-73
2021/04/07 05:43:23;;;;;;;364.15;211.48;;;;;;;;;;4972025;28;20117;-73
2021/04/07 05:46:26;;;;;;;365.70;204.25;;;;;;;;;;4966214;28;20070;-73
2021/04/07 05:48:52;;;;;;;371.80;213.43;;;;;;;;;;4959050;28;20066;-73
2021/04/07 05:51:18;;;;;;;373.17;221.15;;;;;;;;;;4976148;28;20069;-72
2021/04/07 05:53:44;;;;;;;369.25;213.43;;;;;;;;;;4959225;28;20695;-72
2021/04/07 05:56:10;;;;;;;371.00;220.10;;;;;;;;;;4977039;28;20406;-73
2021/04/07 05:58:36;;;;;;;375.80;223.02;;;;;;;;;;4978377;28;20030;-72
2021/04/07 06:01:02;;;;;;;366.42;217.10;;;;;;;;;;4964844;28;20035;-72
2021/04/07 06:03:28;;;;;;;370.23;216.13;;;;;;;;;;4975668;28;20034;-72
2021/04/07 06:05:54;;;;;;;373.80;224.05;;;;;;;;;;4994961;28;20034;-71
2021/04/07 06:08:20;;;;;;;374.50;220.77;;;;;;;;;;4995514;28;20026;-72
2021/04/07 06:10:47;;;;;;;377.85;221.63;;;;;;;;;;4977445;28;20030;-72
2021/04/07 06:13:14;;;;;;;375.33;223.05;;;;;;;;;;4992921;28;20041;-72
2021/04/07 06:15:40;;;;;;;378.50;225.82;;;;;;;;;;4976771;28;20035;-72
2021/04/07 06:18:21;;;;;;;372.58;226.35;;;;;;;;;;4994524;28;20096;-72
2021/04/07 06:20:49;;;;;;;379.15;221.32;;;;;;;;;;4966795;28;20034;-72
2021/04/07 06:23:16;;;;;;;376.42;227.45;;;;;;;;;;4972287;28;20078;-73
2021/04/07 06:25:43;;;;;;;378.35;222.48;;;;;;;;;;4973176;28;20093;-72
2021/04/07 06:28:10;;;;;;;373.20;218.18;;;;;;;;;;4977024;28;20654;-73
2021/04/07 06:30:43;;;;;;;374.25;220.63;;;;;;;;;;4988355;28;20042;-73
2021/04/07 06:33:09;;;;;;;376.17;218.05;;;;;;;;;;4990336;28;20418;-73
2021/04/07 06:35:35;;;;;;;377.77;224.45;;;;;;;;;;4977136;28;20038;-73
2021/04/07 06:38:01;;;;;;;382.52;224.38;;;;;;;;;;4990281;28;20130;-73
2021/04/07 06:40:28;;;;;;;378.90;222.68;;;;;;;;;;4986833;28;20856;-73
2021/04/07 06:42:54;;;;;;;377.10;220.50;;;;;;;;;;4996313;28;20066;-73
2021/04/07 06:45:20;;;;;;;386.02;228.15;;;;;;;;;;4975823;28;20069;-73
2021/04/07 06:47:47;;;;;;;379.88;226.52;;;;;;;;;;4991832;28;20070;-73
2021/04/07 06:50:14;;;;;;;383.65;228.25;;;;;;;;;;4974719;28;20033;-73
2021/04/07 06:52:43;;;;;;;380.65;223.25;;;;;;;;;;4981910;28;20477;-73
2021/04/07 06:55:09;;;;;;;380.60;224.07;;;;;;;;;;4975962;28;20034;-72
2021/04/07 06:57:36;;;;;;;385.80;227.32;;;;;;;;;;4962442;28;20113;-73
2021/04/07 07:00:05;;;;;;;391.67;232.80;;;;;;;;;;4974417;28;20078;-73
2021/04/07 07:02:31;;;;;;;393.00;228.83;;;;;;;;;;4972005;28;20043;-74
2021/04/07 07:04:57;;;;;;;384.63;230.75;;;;;;;;;;4976456;28;20036;-74
2021/04/07 07:07:23;;;;;;;390.25;233.00;;;;;;;;;;4976590;28;20374;-73
2021/04/07 07:09:53;;;;;;;398.15;228.95;;;;;;;;;;4992163;28;20037;-73
2021/04/07 07:12:20;;;;;;;398.95;230.68;;;;;;;;;;4989216;28;20026;-75
2021/04/07 07:14:46;;;;;;;386.88;230.32;;;;;;;;;;4974483;28;20052;-76
2021/04/07 07:17:12;;;;;;;392.27;232.00;;;;;;;;;;4976310;28;20015;-76
2021/04/07 07:19:38;;;;;;;382.60;223.07;;;;;;;;;;4970475;28;20023;-75
2021/04/07 07:22:07;;;;;;;402.90;243.05;;;;;;;;;;4990005;28;20105;-77
2021/04/07 07:24:34;;;;;;;392.10;229.07;;;;;;;;;;4976141;28;20030;-76
2021/04/07 07:27:02;;;;;;;394.63;234.55;;;;;;;;;;4976581;28;20025;-75
2021/04/07 07:29:32;;;;;;;389.23;226.73;;;;;;;;;;4991923;28;20022;-76
2021/04/07 07:32:13;;;;;;;387.77;229.82;;;;;;;;;;4976843;28;20056;-79
2021/04/07 07:34:39;;;;;;;400.38;236.63;;;;;;;;;;4976248;28;20049;-79
2021/04/07 07:37:06;;;;;;;385.42;231.60;;;;;;;;;;4971393;28;20027;-76
2021/04/07 07:39:36;;;;;;;403.63;240.75;;;;;;;;;;4974890;28;20035;-79
2021/04/07 07:42:21;;;;;;;390.90;233.75;;;;;;;;;;4964000;28;20065;-74
2021/04/07 07:44:47;;;;;;;393.88;229.80;;;;;;;;;;4975281;28;20045;-76
2021/04/07 07:47:29;;;;;;;396.08;238.00;;;;;;;;;;4971718;28;20411;-77
2021/04/07 07:49:55;;;;;;;387.30;234.50;;;;;;;;;;4967442;28;20046;-77
2021/04/07 07:52:27;;;;;;;397.00;240.00;;;;;;;;;;4975445;28;20046;-75
2021/04/07 07:54:53;;;;;;;397.75;239.82;;;;;;;;;;4976053;28;20141;-75
2021/04/07 07:57:19;;;;;;;395.48;236.52;;;;;;;;;;4983720;28;20057;-75
2021/04/07 07:59:45;;;;;;;398.35;236.45;;;;;;;;;;4976250;28;20514;-77
2021/04/07 08:02:16;;;;;;;401.50;239.35;;;;;;;;;;4975456;28;20030;-74
2021/04/07 08:04:41;;;;;;;;;;;;;;;;;;4976150;28;20422;-74
2021/04/07 08:07:07;;;;;;;397.90;228.98;;;;;;;;;;4975487;28;20005;-74
2021/04/07 08:09:33;;;;;;;392.92;235.20;;;;;;;;;;4967678;28;20104;-76
2021/04/07 08:11:59;;;;;;;401.90;250.85;;;;;;;;;;4966687;28;20038;-74
2021/04/07 08:14:32;;;;;;;406.40;245.73;;;;;;;;;;4972491;28;20042;-80
2021/04/07 08:16:58;;;;;;;400.23;250.18;;;;;;;;;;4988039;28;20023;-75
2021/04/07 08:19:24;;;;;;;413.23;250.57;;;;;;;;;;4991456;28;20494;-77
2021/04/07 08:21:53;;;;;;;408.67;246.68;;;;;;;;;;4993226;28;20033;-77
2021/04/07 08:24:21;;;;;;;412.52;245.82;;;;;;;;;;4982135;28;20038;-80
2021/04/07 08:26:47;;;;;;;404.55;251.10;;;;;;;;;;4973761;28;20038;-75
2021/04/07 08:29:13;;;;;;;406.15;248.38;;;;;;;;;;4967366;28;20026;-78
2021/04/07 08:31:39;;;;;;;404.52;244.38;;;;;;;;;;4975334;28;20038;-77
2021/04/07 08:34:07;;;;;;;411.50;243.63;;;;;;;;;;4994447;28;20041;-78
2021/04/07 08:36:33;;;;;;;405.08;246.00;;;;;;;;;;4976641;28;20042;-78
2021/04/07 08:39:00;;;;;;;414.58;249.13;;;;;;;;;;4976323;28;20026;-76
2021/04/07 08:41:26;;;;;;;400.40;241.15;;;;;;;;;;4982362;28;20081;-76
2021/04/07 08:43:53;;;;;;;400.50;240.82;;;;;;;;;;4968814;28;20030;-77
2021/04/07 08:46:24;;;;;;;399.60;243.88;;;;;;;;;;4958934;28;20031;-76
2021/04/07 08:48:56;;;;;;;398.58;244.80;;;;;;;;;;4967297;28;20018;-79
2021/04/07 08:51:32;;;;;;;400.55;250.10;;;;;;;;;;4975474;28;20022;-75
2021/04/07 08:53:58;;;;;;;401.73;242.48;;;;;;;;;;4992391;28;20022;-77
2021/04/07 08:56:34;;;;;;;406.08;251.52;;;;;;;;;;4973277;28;20106;-79
2021/04/07 08:59:01;;;;;;;406.55;246.88;;;;;;;;;;4961184;28;20037;-79
2021/04/07 09:01:30;;;;;;;407.27;255.90;;;;;;;;;;4993908;28;20533;-75
2021/04/07 09:04:10;;;;;;;408.27;251.75;;;;;;;;;;4965709;28;20023;-78
2021/04/07 09:06:36;;;;;;;406.60;252.77;;;;;;;;;;4962460;28;20090;-77
2021/04/07 09:09:04;;;;;;;413.58;247.32;;;;;;;;;;4974009;28;20061;-78
2021/04/07 09:11:32;;;;;;;417.65;259.70;;;;;;;;;;4967213;28;20022;-76
2021/04/07 09:14:04;;;;;;;407.60;257.55;;;;;;;;;;4992305;28;20014;-73
2021/04/07 09:16:40;;;;;;;401.13;256.02;;;;;;;;;;4967243;28;20615;-77
2021/04/07 09:19:12;;;;;;;402.10;252.45;;;;;;;;;;4985091;28;20026;-76
2021/04/07 09:21:38;;;;;;;395.48;249.63;;;;;;;;;;4995215;28;20062;-83
2021/04/07 09:24:15;;;;;;;396.05;251.45;;;;;;;;;;4977527;28;20036;-76
2021/04/07 09:27:00;;;;;;;392.67;244.15;;;;;;;;;;4958692;28;20038;-75
2021/04/07 09:29:26;;;;;;;390.63;241.73;;;;;;;;;;4978023;28;20470;-76
2021/04/07 09:31:52;;;;;;;393.05;249.65;;;;;;;;;;4978158;28;20054;-80
2021/04/07 09:34:18;;;;;;;397.80;253.57;;;;;;;;;;4976329;28;20046;-78
2021/04/07 09:36:48;;;;;;;392.58;246.15;;;;;;;;;;4978497;28;20018;-75
2021/04/07 09:39:16;;;;;;;391.45;248.75;;;;;;;;;;4996304;28;20138;-80
2021/04/07 09:41:44;;;;;;;390.15;237.63;;;;;;;;;;4978133;28;20034;-80
2021/04/07 09:44:11;;;;;;;389.85;243.30;;;;;;;;;;4988266;28;20023;-74
2021/04/07 09:46:37;;;;;;;388.65;243.02;;;;;;;;;;4977925;28;20026;-78
2021/04/07 09:49:05;;;;;;;388.60;246.50;;;;;;;;;;4996063;28;20025;-76
2021/04/07 09:51:33;;;;;;;398.60;247.68;;;;;;;;;;4969009;28;20699;-77
2021/04/07 09:54:08;;;;;;;399.90;251.13;;;;;;;;;;4986191;28;20058;-77
2021/04/07 09:56:47;;;;;;;404.52;247.77;;;;;;;;;;4960908;28;20411;-78
2021/04/07 09:59:13;;;;;;;400.73;251.20;;;;;;;;;;4990718;28;20090;-77
2021/04/07 10:01:40;;;;;;;402.88;251.18;;;;;;;;;;4976700;28;20050;-79
2021/04/07 10:04:07;;;;;;;413.27;254.50;;;;;;;;;;4977869;28;20030;-79
2021/04/07 10:06:33;;;;;;;413.75;260.63;;;;;;;;;;4993740;28;20299;-84
2021/04/07 10:09:00;;;;;;;425.65;269.20;;;;;;;;;;4969547;28;20034;-77
2021/04/07 10:11:27;;;;;;;420.55;269.27;;;;;;;;;;4980673;28;20030;-78
2021/04/07 10:13:54;;;;;;;420.27;273.60;;;;;;;;;;4972557;28;20026;-78
2021/04/07 10:16:21;;;;;;;414.20;273.27;;;;;;;;;;4980882;28;20026;-78
2021/04/07 10:18:47;;;;;;;412.45;268.52;;;;;;;;;;4968875;28;20037;-78
2021/04/07 10:21:14;;;;;;;424.23;288.13;;;;;;;;;;4988802;28;20058;-82
2021/04/07 10:23:41;;;;;;;406.50;275.63;;;;;;;;;;4994570;28;20041;-81
2021/04/07 10:26:26;;;;;;;406.40;271.48;;;;;;;;;;4992670;28;20715;-76
2021/04/07 10:28:59;;;;;;;403.77;260.50;;;;;;;;;;4992722;28;20466;-78
2021/04/07 10:31:35;;;;;;;406.02;255.32;;;;;;;;;;4983984;28;20022;-80
2021/04/07 10:34:14;;;;;;;405.83;259.08;;;;;;;;;;4973405;28;20039;-80
2021/04/07 10:36:41;;;;;;;401.10;251.82;;;;;;;;;;4977604;28;20031;-75
2021/04/07 10:39:18;;;;;;;402.45;246.32;;;;;;;;;;4974204;28;20049;-82
2021/04/07 10:41:52;;;;;;;398.55;244.02;;;;;;;;;;4985220;28;20062;-79
2021/04/07 10:44:28;;;;;;;409.33;267.70;;;;;;;;;;4992919;28;20034;-80
2021/04/07 10:46:55;;;;;;;411.52;264.40;;;;;;;;;;4973524;28;20491;-78
2021/04/07 10:49:25;;;;;;;407.02;250.18;;;;;;;;;;4972724;28;20514;-77
2021/04/07 10:52:13;;;;;;;409.60;252.38;;;;;;;;;;4975737;28;20542;-75
2021/04/07 10:54:39;;;;;;;408.60;248.35;;;;;;;;;;4964553;28;20026;-81
2021/04/07 10:57:07;;;;;;;413.45;245.65;;;;;;;;;;4965923;28;20485;-77
2021/04/07 10:59:33;;;;;;;410.45;257.90;;;;;;;;;;4975916;28;20030;-77
2021/04/07 11:02:00;;;;;;;413.25;253.55;;;;;;;;;;4965682;28;20039;-78
2021/04/07 11:04:33;;;;;;;409.27;259.17;;;;;;;;;;4968824;28;20030;-78
2021/04/07 11:06:59;;;;;;;410.00;257.88;;;;;;;;;;4973451;28;20033;-79
2021/04/07 11:09:45;;;;;;;412.75;268.83;;;;;;;;;;4991604;28;20027;-81
2021/04/07 11:12:11;;;;;;;400.17;254.43;;;;;;;;;;4962706;28;20110;-82
2021/04/07 11:14:39;;;;;;;406.25;264.45;;;;;;;;;;4963856;28;20023;-79
2021/04/07 11:17:05;;;;;;;403.50;256.15;;;;;;;;;;4988319;28;20029;-78
2021/04/07 11:19:35;;;;;;;407.75;255.38;;;;;;;;;;4994358;28;20545;-81
2021/04/07 11:25:05;;;;;;;404.23;260.25;;;;;;;;;;4991874;28;20493;-78
2021/04/07 11:27:35;;;;;;;401.88;259.40;;;;;;;;;;4975962;28;20670;-81
2021/04/07 11:30:04;;;;;;;407.05;262.52;;;;;;;;;;4990304;28;20049;-78
2021/04/07 11:32:33;;;;;;;400.05;259.15;;;;;;;;;;4976510;28;20056;-79
2021/04/07 11:35:05;;;;;;;412.08;269.10;;;;;;;;;;4976518;28;20050;-85
2021/04/07 11:37:51;;;;;;;404.27;257.25;;;;;;;;;;4994489;28;20023;-79
2021/04/07 11:43:06;;;;;;;406.05;266.48;;;;;;;;;;4993833;28;20026;-79
2021/04/07 11:45:33;;;;;;;406.40;267.00;;;;;;;;;;4976202;28;20150;-80
2021/04/07 11:47:59;;;;;;;398.88;259.67;;;;;;;;;;4984588;28;20029;-77
2021/04/07 11:50:25;;;;;;;408.15;271.00;;;;;;;;;;4969918;28;20351;-78
2021/04/07 11:52:51;;;;;;;406.98;267.95;;;;;;;;;;4972807;28;20030;-76
2021/04/07 11:55:17;;;;;;;407.17;262.58;;;;;;;;;;4956968;28;20026;-81
2021/04/07 11:57:43;;;;;;;408.42;262.35;;;;;;;;;;4963971;28;20034;-79
2021/04/07 12:00:10;;;;;;;408.95;260.65;;;;;;;;;;4975459;28;20041;-79
2021/04/07 12:02:40;;;;;;;401.77;257.13;;;;;;;;;;4976794;28;20705;-77
2021/04/07 12:05:06;;;;;;;408.65;258.80;;;;;;;;;;4963530;28;20023;-77
2021/04/07 12:07:32;;;;;;;407.15;255.02;;;;;;;;;;4963289;28;20754;-79
2021/04/07 12:09:58;;;;;;;414.17;267.42;;;;;;;;;;4958897;28;20019;-76
2021/04/07 12:12:24;;;;;;;413.23;269.65;;;;;;;;;;4974701;28;20027;-80
2021/04/07 12:14:50;;;;;;;416.63;271.67;;;;;;;;;;4991019;28;20027;-77
2021/04/07 12:17:19;;;;;;;409.98;273.70;;;;;;;;;;4976342;28;20185;-81
2021/04/07 12:19:45;;;;;;;403.63;268.10;;;;;;;;;;4963342;28;20039;-77
2021/04/07 12:22:12;;;;;;;417.45;269.58;;;;;;;;;;4976204;28;20030;-79
2021/04/07 12:24:38;;;;;;;410.88;276.02;;;;;;;;;;4983812;28;20374;-81
2021/04/07 12:27:04;;;;;;;406.65;269.17;;;;;;;;;;4975817;28;20030;-80
2021/04/07 12:29:30;;;;;;;406.60;264.60;;;;;;;;;;4976244;28;20023;-82
2021/04/07 12:31:56;;;;;;;405.40;262.75;;;;;;;;;;4975544;28;20017;-81
2021/04/07 12:34:23;;;;;;;407.73;262.70;;;;;;;;;;4972107;28;20153;-79
2021/04/07 12:36:49;;;;;;;409.35;264.80;;;;;;;;;;4987108;28;20058;-78
2021/04/07 12:39:15;;;;;;;413.25;265.88;;;;;;;;;;4975000;28;20457;-79
2021/04/07 12:41:53;;;;;;;412.55;263.98;;;;;;;;;;4975833;28;20110;-77
2021/04/07 12:44:19;;;;;;;406.98;261.27;;;;;;;;;;4989733;28;20410;-81
2021/04/07 12:46:45;;;;;;;411.30;255.60;;;;;;;;;;4967104;28;20042;-79
2021/04/07 12:49:11;;;;;;;407.75;259.35;;;;;;;;;;4998495;28;20118;-78
2021/04/07 12:51:38;;;;;;;413.20;258.65;;;;;;;;;;4980468;28;20061;-78
2021/04/07 12:54:04;;;;;;;410.73;257.88;;;;;;;;;;4979138;28;20077;-77
2021/04/07 12:56:31;;;;;;;402.25;256.67;;;;;;;;;;4995727;28;20026;-81
2021/04/07 12:58:57;;;;;;;398.13;253.55;;;;;;;;;;4978926;28;20022;-81
2021/04/07 13:01:23;;;;;;;400.88;255.82;;;;;;;;;;5015144;28;20022;-79
2021/04/07 13:03:49;;;;;;;398.58;257.70;;;;;;;;;;4987625;28;20646;-81
2021/04/07 13:06:15;;;;;;;398.80;258.80;;;;;;;;;;4978893;28;20548;-79
2021/04/07 13:08:41;;;;;;;404.45;262.23;;;;;;;;;;4970074;28;20696;-79
2021/04/07 13:11:08;;;;;;;404.23;260.13;;;;;;;;;;4994585;28;20054;-79
2021/04/07 13:13:40;;;;;;;406.10;267.33;;;;;;;;;;4977681;28;20399;-82
2021/04/07 13:16:07;;;;;;;402.27;259.38;;;;;;;;;;4978961;28;20132;-79
2021/04/07 13:18:33;;;;;;;402.98;263.98;;;;;;;;;;4964958;28;20121;-83
2021/04/07 13:21:06;;;;;;;402.25;264.25;;;;;;;;;;4973800;28;20041;-82
2021/04/07 13:23:32;;;;;;;402.25;262.73;;;;;;;;;;4976020;28;20026;-80
2021/04/07 13:25:58;;;;;;;404.10;267.88;;;;;;;;;;4969709;28;20037;-77
2021/04/07 13:28:24;;;;;;;396.90;258.33;;;;;;;;;;4977856;28;20431;-81
2021/04/07 13:30:52;;;;;;;402.85;264.70;;;;;;;;;;4978644;28;20081;-80
2021/04/07 13:33:36;;;;;;;399.92;264.75;;;;;;;;;;4976953;28;20027;-80
2021/04/07 13:36:09;;;;;;;408.05;270.65;;;;;;;;;;4966189;28;20078;-77
2021/04/07 13:43:46;;;;;;;410.58;269.50;;;;;;;;;;4991442;28;20078;-77
2021/04/07 13:46:12;;;;;;;424.95;276.13;;;;;;;;;;4968632;28;20812;-80
2021/04/07 13:48:42;;;;;;;405.98;273.92;;;;;;;;;;4976460;28;20719;-78
2021/04/07 13:51:09;;;;;;;413.15;280.75;;;;;;;;;;4973055;28;20118;-78
2021/04/07 13:53:35;;;;;;;414.77;282.58;;;;;;;;;;4978203;28;20026;-79
2021/04/07 13:56:13;;;;;;;411.80;277.10;;;;;;;;;;5000487;28;20030;-81
2021/04/07 13:58:42;;;;;;;408.42;280.70;;;;;;;;;;4977823;28;20486;-80
2021/04/07 14:01:08;;;;;;;411.02;284.10;;;;;;;;;;4994752;28;20057;-82
2021/04/07 14:03:34;;;;;;;413.63;285.63;;;;;;;;;;4972795;28;20082;-79
2021/04/07 14:06:00;;;;;;;411.92;287.08;;;;;;;;;;4966398;28;20058;-81
2021/04/07 14:08:29;;;;;;;415.33;289.25;;;;;;;;;;4959138;28;20027;-80